createdAt,value
2023-03-19T00:02:08.994Z,14.90
2023-03-19T00:04:45.604Z,14.90
2023-03-19T00:07:13.322Z,14.90
2023-03-19T00:09:40.729Z,14.90
2023-03-19T00:12:09.967Z,14.90
2023-03-19T00:14:36.765Z,14.90
2023-03-19T00:17:06.796Z,14.90
2023-03-19T00:19:33.495Z,14.90
2023-03-19T00:22:02.051Z,14.90
2023-03-19T00:24:29.086Z,14.80
2023-03-19T00:26:55.978Z,14.80
2023-03-19T00:29:23.417Z,14.80
2023-03-19T00:31:51.678Z,14.80
2023-03-19T00:34:19.381Z,14.80
2023-03-19T00:36:47.039Z,14.80
2023-03-19T00:39:13.809Z,14.80
2023-03-19T00:41:40.960Z,14.90
2023-03-19T00:44:10.809Z,14.80
2023-03-19T00:46:37.483Z,14.80
2023-03-19T00:49:04.428Z,14.80
2023-03-19T00:51:33.907Z,14.80
2023-03-19T00:54:00.762Z,14.80
2023-03-19T00:56:27.477Z,14.80
2023-03-19T00:58:56.227Z,14.80
2023-03-19T01:01:23.127Z,14.90
2023-03-19T01:03:49.901Z,14.80
2023-03-19T01:06:17.656Z,14.80
2023-03-19T01:08:44.474Z,14.80
2023-03-19T01:11:15.026Z,14.80
2023-03-19T01:13:42.369Z,14.70
2023-03-19T01:16:10.031Z,14.70
2023-03-19T01:18:37.904Z,14.60
2023-03-19T01:21:05.413Z,14.70
2023-03-19T01:23:32.133Z,14.70
2023-03-19T01:25:58.809Z,14.70
2023-03-19T01:28:27.121Z,14.70
2023-03-19T01:30:57.923Z,14.70
2023-03-19T01:33:25.794Z,14.70
2023-03-19T01:35:54.024Z,14.70
2023-03-19T01:38:20.697Z,14.70
2023-03-19T01:40:48.580Z,14.70
2023-03-19T01:43:21.054Z,14.70
2023-03-19T01:45:52.221Z,14.70
2023-03-19T01:48:41.012Z,14.60
2023-03-19T01:51:10.635Z,14.70
2023-03-19T01:53:39.443Z,14.70
2023-03-19T01:56:32.680Z,14.70
2023-03-19T01:59:06.669Z,14.60
2023-03-19T02:01:38.473Z,14.60
2023-03-19T02:04:06.198Z,14.60
2023-03-19T02:06:33.356Z,14.60
2023-03-19T02:09:03.575Z,14.50
2023-03-19T02:11:31.171Z,14.50
2023-03-19T02:13:58.311Z,14.50
2023-03-19T02:16:25.320Z,14.50
2023-03-19T02:18:53.445Z,14.40
2023-03-19T02:21:21.858Z,14.40
2023-03-19T02:24:08.714Z,14.30
2023-03-19T02:26:36.491Z,14.20
2023-03-19T02:29:04.253Z,14.20
2023-03-19T02:31:32.840Z,14.10
2023-03-19T02:34:24.622Z,14.00
2023-03-19T02:36:56.145Z,14.00
2023-03-19T02:39:34.653Z,14.00
2023-03-19T02:42:02.215Z,14.00
2023-03-19T02:44:30.256Z,13.90
2023-03-19T02:46:57.051Z,13.90
2023-03-19T02:49:24.717Z,13.90
2023-03-19T02:51:52.764Z,13.80
2023-03-19T02:54:19.904Z,13.80
2023-03-19T02:56:46.831Z,13.70
2023-03-19T02:59:13.567Z,13.70
2023-03-19T03:01:40.326Z,13.70
2023-03-19T03:04:08.200Z,13.60
2023-03-19T03:06:34.923Z,13.60
2023-03-19T03:09:01.719Z,13.50
2023-03-19T03:11:28.403Z,13.50
2023-03-19T03:13:56.441Z,13.50
2023-03-19T03:16:23.518Z,13.40
2023-03-19T03:18:52.157Z,13.40
2023-03-19T03:21:21.370Z,13.40
2023-03-19T03:23:48.698Z,13.30
2023-03-19T03:26:15.829Z,13.20
2023-03-19T03:28:43.430Z,13.30
2023-03-19T03:31:10.262Z,13.20
2023-03-19T03:33:37.530Z,13.30
2023-03-19T03:36:04.617Z,13.20
2023-03-19T03:38:32.841Z,13.20
2023-03-19T03:41:00.955Z,13.10
2023-03-19T03:43:27.727Z,13.10
2023-03-19T03:45:54.595Z,13.10
2023-03-19T03:48:21.979Z,13.10
2023-03-19T03:50:49.787Z,13.10
2023-03-19T03:53:16.979Z,13.10
2023-03-19T03:55:44.916Z,13.10
2023-03-19T03:58:13.135Z,13.00
2023-03-19T04:00:39.995Z,13.00
2023-03-19T04:03:07.224Z,13.00
2023-03-19T04:05:33.974Z,13.00
2023-03-19T04:08:01.316Z,13.00
2023-03-19T04:10:28.030Z,13.00
2023-03-19T04:12:54.852Z,13.00
2023-03-19T04:15:22.539Z,13.00
2023-03-19T04:17:49.246Z,12.90
2023-03-19T04:20:18.469Z,12.90
2023-03-19T04:22:46.150Z,12.90
2023-03-19T04:25:12.874Z,12.90
2023-03-19T04:27:39.559Z,13.00
2023-03-19T04:30:07.066Z,13.00
2023-03-19T04:32:35.620Z,13.00
2023-03-19T04:35:03.181Z,13.00
2023-03-19T04:37:30.392Z,13.00
2023-03-19T04:39:59.413Z,13.00
2023-03-19T04:42:26.109Z,13.00
2023-03-19T04:44:53.481Z,13.00
2023-03-19T04:47:21.076Z,13.00
2023-03-19T04:49:48.812Z,13.00
2023-03-19T04:52:15.528Z,12.90
2023-03-19T04:54:42.226Z,12.90
2023-03-19T04:57:10.235Z,12.90
2023-03-19T04:59:37.096Z,12.90
2023-03-19T05:02:04.067Z,13.00
2023-03-19T05:04:30.742Z,13.00
2023-03-19T05:06:58.213Z,13.00
2023-03-19T05:09:25.174Z,13.10
2023-03-19T05:11:52.137Z,13.10
2023-03-19T05:14:19.119Z,13.10
2023-03-19T05:16:45.841Z,13.20
2023-03-19T05:19:13.560Z,13.10
2023-03-19T05:21:44.176Z,13.10
2023-03-19T05:24:10.958Z,13.00
2023-03-19T05:26:38.076Z,13.00
2023-03-19T05:29:05.062Z,13.00
2023-03-19T05:31:34.074Z,13.00
2023-03-19T05:34:00.855Z,13.10
2023-03-19T05:36:28.253Z,13.00
2023-03-19T05:38:56.425Z,12.90
2023-03-19T05:41:23.638Z,12.80
2023-03-19T05:43:51.324Z,12.80
2023-03-19T05:46:18.038Z,12.80
2023-03-19T05:48:44.795Z,12.80
2023-03-19T05:51:13.156Z,12.80
2023-03-19T05:53:39.938Z,12.80
2023-03-19T05:56:07.180Z,12.80
2023-03-19T05:58:35.177Z,12.70
2023-03-19T06:01:03.038Z,12.70
2023-03-19T06:03:30.856Z,12.70
2023-03-19T06:05:57.879Z,12.70
2023-03-19T06:08:25.105Z,12.70
2023-03-19T06:10:53.616Z,12.70
2023-03-19T06:13:20.555Z,12.70
2023-03-19T06:15:49.205Z,12.70
2023-03-19T06:18:16.857Z,12.80
2023-03-19T06:20:46.746Z,12.80
2023-03-19T06:23:16.333Z,12.80
2023-03-19T06:25:45.486Z,12.90
2023-03-19T06:28:13.758Z,12.90
2023-03-19T06:30:40.915Z,12.80
2023-03-19T06:33:07.958Z,12.80
2023-03-19T06:35:35.171Z,12.80
2023-03-19T06:38:01.862Z,12.80
2023-03-19T06:40:28.545Z,12.80
2023-03-19T06:42:55.289Z,12.70
2023-03-19T06:45:22.410Z,12.80
2023-03-19T06:47:50.130Z,12.80
2023-03-19T06:50:18.120Z,12.70
2023-03-19T06:52:45.613Z,12.70
2023-03-19T06:55:12.892Z,12.80
2023-03-19T06:57:39.841Z,12.90
2023-03-19T07:00:07.568Z,12.90
2023-03-19T07:02:36.330Z,13.00
2023-03-19T07:05:03.995Z,13.10
2023-03-19T07:07:31.629Z,13.10
2023-03-19T07:09:59.998Z,13.20
2023-03-19T07:12:29.584Z,13.30
2023-03-19T07:14:56.818Z,13.40
2023-03-19T07:17:25.709Z,13.40
2023-03-19T07:19:57.344Z,13.50
2023-03-19T07:22:24.406Z,13.50
2023-03-19T07:24:51.630Z,13.60
2023-03-19T07:27:18.359Z,13.70
2023-03-19T07:29:45.122Z,13.60
2023-03-19T07:32:12.016Z,13.60
2023-03-19T07:34:38.953Z,13.60
2023-03-19T07:37:06.221Z,13.60
2023-03-19T07:39:34.132Z,13.60
2023-03-19T07:42:00.835Z,13.60
2023-03-19T07:44:27.559Z,13.60
2023-03-19T07:46:55.643Z,13.60
2023-03-19T07:49:25.784Z,13.60
2023-03-19T07:51:52.541Z,13.70
2023-03-19T07:54:21.542Z,13.70
2023-03-19T07:56:49.719Z,13.70
2023-03-19T07:59:17.052Z,13.70
2023-03-19T08:01:43.847Z,13.80
2023-03-19T08:04:11.802Z,13.90
2023-03-19T08:06:40.158Z,13.90
2023-03-19T08:09:07.064Z,13.80
2023-03-19T08:11:33.872Z,13.80
2023-03-19T08:14:00.747Z,13.80
2023-03-19T08:16:27.679Z,13.80
2023-03-19T08:18:55.991Z,13.80
2023-03-19T08:21:25.609Z,13.80
2023-03-19T08:23:53.474Z,13.80
2023-03-19T08:26:20.276Z,13.70
2023-03-19T08:28:46.977Z,13.70
2023-03-19T08:31:14.559Z,13.70
2023-03-19T08:33:41.385Z,13.70
2023-03-19T08:36:11.106Z,13.80
2023-03-19T08:38:38.789Z,13.80
2023-03-19T08:41:06.337Z,13.80
2023-03-19T08:43:34.648Z,13.80
2023-03-19T08:46:01.847Z,13.90
2023-03-19T08:48:29.337Z,13.90
2023-03-19T08:50:57.968Z,14.00
2023-03-19T08:53:25.527Z,13.90
2023-03-19T08:55:53.762Z,14.00
2023-03-19T08:58:21.097Z,14.00
2023-03-19T09:00:48.922Z,14.00
2023-03-19T09:03:17.466Z,14.00
2023-03-19T09:05:45.503Z,14.00
2023-03-19T09:08:12.613Z,14.10
2023-03-19T09:10:40.070Z,14.10
2023-03-19T09:13:08.569Z,14.10
2023-03-19T09:15:36.822Z,14.20
2023-03-19T09:18:03.634Z,14.20
2023-03-19T09:20:30.351Z,14.30
2023-03-19T09:22:57.085Z,14.30
2023-03-19T09:25:23.755Z,14.30
2023-03-19T09:27:51.605Z,14.40
2023-03-19T09:30:18.357Z,14.40
2023-03-19T09:32:45.309Z,14.40
2023-03-19T09:35:12.040Z,14.50
2023-03-19T09:37:38.844Z,14.40
2023-03-19T09:40:06.592Z,14.60
2023-03-19T09:42:45.012Z,14.50
2023-03-19T09:45:16.068Z,14.60
2023-03-19T09:47:43.976Z,14.70
2023-03-19T09:50:18.366Z,14.70
2023-03-19T09:52:49.959Z,14.70
2023-03-19T09:55:28.410Z,14.70
2023-03-19T09:57:57.458Z,14.70
2023-03-19T10:00:32.958Z,14.70
2023-03-19T10:03:21.670Z,14.60
2023-03-19T10:06:22.267Z,14.50
2023-03-19T10:09:27.027Z,14.40
2023-03-19T10:12:42.018Z,14.50
2023-03-19T10:15:17.427Z,14.60
2023-03-19T10:17:54.951Z,14.70
2023-03-19T10:21:05.945Z,14.70
2023-03-19T10:23:33.330Z,14.70
2023-03-19T10:26:04.136Z,14.80
2023-03-19T10:28:31.249Z,14.70
2023-03-19T10:31:14.844Z,14.80
2023-03-19T10:33:46.126Z,14.80
2023-03-19T10:36:15.692Z,14.80
2023-03-19T10:38:44.491Z,14.80
2023-03-19T10:41:49.341Z,14.70
2023-03-19T10:44:34.989Z,14.60
2023-03-19T10:47:15.021Z,14.60
2023-03-19T10:49:42.685Z,14.70
2023-03-19T10:52:18.744Z,14.80
2023-03-19T10:54:46.532Z,14.80
2023-03-19T10:57:26.716Z,14.80
2023-03-19T10:59:54.000Z,14.80
2023-03-19T11:02:23.631Z,14.70
2023-03-19T11:05:14.171Z,14.80
2023-03-19T11:07:41.089Z,14.80
2023-03-19T11:10:20.158Z,14.90
2023-03-19T11:13:03.700Z,15.00
2023-03-19T11:15:36.923Z,15.10
2023-03-19T11:18:20.565Z,15.20
2023-03-19T11:20:58.602Z,15.30
2023-03-19T11:23:30.331Z,15.40
2023-03-19T11:26:01.883Z,15.50
2023-03-19T11:28:33.834Z,15.60
2023-03-19T11:31:15.234Z,15.60
2023-03-19T11:34:08.638Z,15.70
2023-03-19T11:37:05.880Z,15.70
2023-03-19T11:39:55.960Z,15.80
2023-03-19T11:42:45.872Z,15.80
2023-03-19T11:45:20.805Z,15.80
2023-03-19T11:48:13.016Z,15.90
2023-03-19T11:50:59.009Z,15.90
2023-03-19T11:53:39.300Z,15.90
2023-03-19T11:56:21.985Z,15.90
2023-03-19T11:58:54.908Z,15.90
2023-03-19T12:01:39.168Z,15.90
2023-03-19T12:04:11.834Z,15.90
2023-03-19T12:06:54.168Z,15.90
2023-03-19T12:09:32.495Z,15.90
2023-03-19T12:12:18.692Z,15.90
2023-03-19T12:14:53.970Z,15.90
2023-03-19T12:17:59.477Z,15.80
2023-03-19T12:20:36.185Z,15.90
2023-03-19T12:23:53.341Z,15.90
2023-03-19T12:26:38.165Z,16.00
2023-03-19T12:29:34.792Z,16.10
2023-03-19T12:32:16.328Z,16.20
2023-03-19T12:34:52.051Z,16.30
2023-03-19T12:37:28.251Z,16.40
2023-03-19T12:40:15.224Z,16.50
2023-03-19T12:42:43.728Z,16.60
2023-03-19T12:45:43.069Z,16.60
2023-03-19T12:48:16.824Z,16.60
2023-03-19T12:50:50.208Z,16.50
2023-03-19T12:53:35.630Z,16.50
2023-03-19T12:56:14.282Z,16.40
2023-03-19T12:59:01.513Z,16.30
2023-03-19T13:01:39.276Z,16.30
2023-03-19T13:04:15.367Z,16.20
2023-03-19T13:06:45.483Z,16.20
2023-03-19T13:09:38.024Z,16.20
2023-03-19T13:12:20.620Z,16.00
2023-03-19T13:14:56.175Z,15.90
2023-03-19T13:17:30.851Z,15.80
2023-03-19T13:20:01.495Z,15.70
2023-03-19T13:22:34.162Z,15.70
2023-03-19T13:25:02.997Z,15.70
2023-03-19T13:27:35.705Z,15.60
2023-03-19T13:30:19.027Z,15.60
2023-03-19T13:32:50.241Z,15.50
2023-03-19T13:35:38.920Z,15.40
2023-03-19T13:38:15.498Z,15.40
2023-03-19T13:40:51.485Z,15.50
2023-03-19T13:43:30.346Z,15.40
2023-03-19T13:46:12.320Z,15.40
2023-03-19T13:48:45.252Z,15.40
2023-03-19T13:51:25.774Z,15.40
2023-03-19T13:53:59.309Z,15.40
2023-03-19T13:56:30.267Z,15.40
2023-03-19T13:59:27.323Z,15.40
2023-03-19T14:01:56.344Z,15.40
2023-03-19T14:04:31.133Z,15.50
2023-03-19T14:07:19.637Z,15.50
2023-03-19T14:09:51.782Z,15.50
2023-03-19T14:12:18.431Z,15.50
2023-03-19T14:14:50.480Z,15.60
2023-03-19T14:17:21.272Z,15.60
2023-03-19T14:19:50.792Z,15.60
2023-03-19T14:22:21.943Z,15.70
2023-03-19T14:25:21.903Z,15.80
2023-03-19T14:27:59.303Z,15.80
2023-03-19T14:30:48.066Z,15.90
2023-03-19T14:33:22.771Z,15.90
2023-03-19T14:35:51.622Z,15.90
2023-03-19T14:38:34.906Z,15.90
2023-03-19T14:41:04.130Z,15.90
2023-03-19T14:43:45.618Z,15.90
2023-03-19T14:46:47.737Z,15.90
2023-03-19T14:49:54.637Z,15.90
2023-03-19T14:52:29.174Z,15.90
2023-03-19T14:55:03.576Z,15.90
2023-03-19T14:57:35.404Z,15.90
2023-03-19T15:00:06.891Z,16.00
2023-03-19T15:02:43.825Z,16.00
2023-03-19T15:05:26.727Z,16.00
2023-03-19T15:07:58.379Z,16.00
2023-03-19T15:10:29.005Z,16.10
2023-03-19T15:13:28.649Z,16.20
2023-03-19T15:16:20.541Z,16.30
2023-03-19T15:18:47.360Z,16.20
2023-03-19T15:21:15.841Z,16.30
2023-03-19T15:23:48.442Z,16.30
2023-03-19T15:26:18.516Z,16.30
2023-03-19T15:28:53.805Z,16.30
2023-03-19T15:31:37.504Z,16.30
2023-03-19T15:34:24.535Z,16.30
2023-03-19T15:37:06.345Z,16.30
2023-03-19T15:39:37.570Z,16.30
2023-03-19T15:42:05.568Z,16.20
2023-03-19T15:44:46.988Z,16.20
2023-03-19T15:47:23.686Z,16.20
2023-03-19T15:50:01.425Z,16.20
2023-03-19T15:52:36.300Z,16.10
2023-03-19T15:55:03.992Z,16.10
2023-03-19T15:57:31.229Z,16.10
2023-03-19T16:00:00.532Z,16.00
2023-03-19T16:02:30.779Z,16.00
2023-03-19T16:07:45.246Z,15.90
2023-03-19T16:10:37.141Z,15.90
2023-03-19T16:13:23.475Z,15.90
2023-03-19T16:16:23.271Z,16.00
2023-03-19T16:18:52.139Z,15.90
2023-03-19T16:21:29.979Z,15.90
2023-03-19T16:24:21.146Z,15.90
2023-03-19T16:26:48.670Z,15.90
2023-03-19T16:29:32.023Z,15.90
2023-03-19T16:32:20.924Z,15.90
2023-03-19T16:35:04.862Z,15.90
2023-03-19T16:37:37.932Z,15.90
2023-03-19T16:40:15.660Z,15.80
2023-03-19T16:42:48.103Z,15.80
2023-03-19T16:45:14.854Z,15.80
2023-03-19T16:47:42.975Z,15.80
2023-03-19T16:50:20.128Z,15.80
2023-03-19T16:52:48.422Z,15.80
2023-03-19T16:55:38.734Z,15.80
2023-03-19T16:58:18.256Z,15.80
2023-03-19T17:00:46.110Z,15.80
2023-03-19T17:03:15.675Z,15.80
2023-03-19T17:05:43.581Z,15.70
2023-03-19T17:08:12.374Z,15.80
2023-03-19T17:10:45.741Z,15.70
2023-03-19T17:13:28.414Z,15.70
2023-03-19T17:16:03.978Z,15.70
2023-03-19T17:18:35.112Z,15.60
2023-03-19T17:21:13.125Z,15.60
2023-03-19T17:23:40.360Z,15.60
2023-03-19T17:26:22.756Z,15.60
2023-03-19T17:28:50.767Z,15.60
2023-03-19T17:31:28.090Z,15.60
2023-03-19T17:34:03.319Z,15.50
2023-03-19T17:36:33.721Z,15.50
2023-03-19T17:39:00.437Z,15.50
2023-03-19T17:41:28.359Z,15.50
2023-03-19T17:43:57.584Z,15.50
2023-03-19T17:46:26.345Z,15.50
2023-03-19T17:48:53.937Z,15.50
2023-03-19T17:51:23.148Z,15.40
2023-03-19T17:53:54.203Z,15.40
2023-03-19T17:56:25.640Z,15.40
2023-03-19T17:58:52.710Z,15.40
2023-03-19T18:01:24.104Z,15.30
2023-03-19T18:03:53.358Z,15.30
2023-03-19T18:06:23.060Z,15.30
2023-03-19T18:08:50.928Z,15.30
2023-03-19T18:11:17.989Z,15.30
2023-03-19T18:13:44.778Z,15.30
2023-03-19T18:16:30.073Z,15.30
2023-03-19T18:19:02.850Z,15.30
2023-03-19T18:21:31.815Z,15.30
2023-03-19T18:23:58.757Z,15.20
2023-03-19T18:26:26.178Z,15.30
2023-03-19T18:28:53.263Z,15.20
2023-03-19T18:31:25.800Z,15.20
2023-03-19T18:34:01.247Z,15.20
2023-03-19T18:36:31.727Z,15.20
2023-03-19T18:38:58.833Z,15.20
2023-03-19T18:41:31.960Z,15.20
2023-03-19T18:44:01.530Z,15.20
2023-03-19T18:46:30.900Z,15.20
2023-03-19T18:49:05.071Z,15.20
2023-03-19T18:51:32.207Z,15.20
2023-03-19T18:54:00.259Z,15.20
2023-03-19T18:56:32.059Z,15.20
2023-03-19T18:59:01.683Z,15.10
2023-03-19T19:01:28.954Z,15.10
2023-03-19T19:03:57.628Z,15.10
2023-03-19T19:06:40.280Z,15.10
2023-03-19T19:09:14.093Z,15.10
2023-03-19T19:11:44.505Z,15.10
2023-03-19T19:14:23.260Z,15.10
2023-03-19T19:16:51.292Z,15.00
2023-03-19T19:19:22.587Z,15.00
2023-03-19T19:21:50.900Z,15.00
2023-03-19T19:24:19.364Z,14.90
2023-03-19T19:26:48.416Z,14.90
2023-03-19T19:29:26.346Z,15.00
2023-03-19T19:31:54.312Z,14.90
2023-03-19T19:34:21.472Z,14.90
2023-03-19T19:36:48.408Z,14.90
2023-03-19T19:39:15.874Z,14.90
2023-03-19T19:41:43.820Z,14.90
2023-03-19T19:44:21.422Z,14.90
2023-03-19T19:46:48.206Z,14.80
2023-03-19T19:49:15.534Z,14.80
2023-03-19T19:51:42.530Z,14.80
2023-03-19T19:54:10.862Z,14.80
2023-03-19T19:56:39.131Z,14.80
2023-03-19T19:59:07.723Z,14.80
2023-03-19T20:01:35.835Z,14.80
2023-03-19T20:04:04.220Z,14.80
2023-03-19T20:06:31.534Z,14.80
2023-03-19T20:08:58.189Z,14.80
2023-03-19T20:11:26.850Z,14.70
2023-03-19T20:13:55.826Z,14.70
2023-03-19T20:16:26.438Z,14.70
2023-03-19T20:18:55.052Z,14.70
2023-03-19T20:21:22.643Z,14.70
2023-03-19T20:23:53.060Z,14.70
2023-03-19T20:26:23.301Z,14.70
2023-03-19T20:28:52.071Z,14.70
2023-03-19T20:31:31.757Z,14.70
2023-03-19T20:34:00.359Z,14.70
2023-03-19T20:36:27.079Z,14.70
2023-03-19T20:38:54.108Z,14.70
2023-03-19T20:41:27.157Z,14.70
2023-03-19T20:43:54.840Z,14.70
2023-03-19T20:46:23.244Z,14.70
2023-03-19T20:48:50.679Z,14.70
2023-03-19T20:51:21.481Z,14.70
2023-03-19T20:53:50.981Z,14.70
2023-03-19T20:56:21.040Z,14.70
2023-03-19T20:58:48.211Z,14.70
2023-03-19T21:01:18.500Z,14.60
2023-03-19T21:03:45.383Z,14.60
2023-03-19T21:06:22.723Z,14.60
2023-03-19T21:08:56.656Z,14.60
2023-03-19T21:11:32.867Z,14.60
2023-03-19T21:13:59.596Z,14.60
2023-03-19T21:16:27.417Z,14.60
2023-03-19T21:18:56.165Z,14.60
2023-03-19T21:21:46.090Z,14.60
2023-03-19T21:24:18.012Z,14.60
2023-03-19T21:26:46.316Z,14.60
2023-03-19T21:29:23.997Z,14.60
2023-03-19T21:31:56.880Z,14.60
2023-03-19T21:34:25.033Z,14.60
2023-03-19T21:36:53.162Z,14.60
2023-03-19T21:39:19.838Z,14.60
2023-03-19T21:41:46.819Z,14.60
2023-03-19T21:44:20.181Z,14.60
2023-03-19T21:46:48.204Z,14.50
2023-03-19T21:49:16.779Z,14.50
2023-03-19T21:51:47.170Z,14.50
2023-03-19T21:54:15.777Z,14.50
2023-03-19T21:56:46.117Z,14.50
2023-03-19T21:59:22.742Z,14.50
2023-03-19T22:01:49.563Z,14.50
2023-03-19T22:04:16.365Z,14.40
2023-03-19T22:06:43.316Z,14.40
2023-03-19T22:09:11.857Z,14.40
2023-03-19T22:11:39.755Z,14.40
2023-03-19T22:14:19.822Z,14.40
2023-03-19T22:16:53.973Z,14.40
2023-03-19T22:19:21.606Z,14.30
2023-03-19T22:21:49.481Z,14.30
2023-03-19T22:24:16.231Z,14.30
2023-03-19T22:26:46.917Z,14.30
2023-03-19T22:29:18.342Z,14.20
2023-03-19T22:31:51.021Z,14.20
2023-03-19T22:34:21.502Z,14.20
2023-03-19T22:36:48.331Z,14.20
2023-03-19T22:39:16.200Z,14.20
2023-03-19T22:41:45.791Z,14.10
2023-03-19T22:44:33.052Z,14.10
2023-03-19T22:47:01.813Z,14.00
2023-03-19T22:49:29.743Z,14.00
2023-03-19T22:51:57.960Z,14.00
2023-03-19T22:54:26.526Z,14.00
2023-03-19T22:56:53.282Z,14.00
2023-03-19T22:59:20.678Z,13.90
2023-03-19T23:01:48.113Z,13.90
2023-03-19T23:04:17.737Z,13.90
2023-03-19T23:06:45.328Z,13.90
2023-03-19T23:09:26.151Z,13.90
2023-03-19T23:11:53.869Z,13.90
2023-03-19T23:14:29.731Z,13.90
2023-03-19T23:19:29.136Z,13.80
2023-03-19T23:21:57.886Z,13.80
2023-03-19T23:24:25.529Z,13.80
2023-03-19T23:26:57.148Z,13.80
2023-03-19T23:29:32.075Z,13.70
2023-03-19T23:31:58.762Z,13.60
2023-03-19T23:34:26.713Z,13.70
2023-03-19T23:36:53.573Z,13.70
2023-03-19T23:39:21.529Z,13.70
2023-03-19T23:41:52.997Z,13.70
2023-03-19T23:44:22.031Z,13.70
2023-03-19T23:46:50.862Z,13.70
2023-03-19T23:49:28.759Z,13.60
2023-03-19T23:51:56.668Z,13.60
2023-03-19T23:54:34.233Z,13.60
2023-03-19T23:57:07.421Z,13.60
2023-03-19T23:59:37.107Z,13.60
